Time;durP1;ratioP1;P1;durP2;ratioP2;P2;SDS_P1;SDS_P2;PMS_P1;PMS_P2;Temp;Humidity;BMP_temperature;BMP_pressure;BME280_temperature;BME280_humidity;BME280_pressure;Samples;Min_cycle;Max_cycle;Signal;HPM_P1;HPM_P2
2022/11/06 00:01:14;;;;;;;8.73;6.67;;;6.60;99.90;;;9.76;55.83;97988.88;4908656;29;20055;-55
2022/11/06 00:03:43;;;;;;;11.57;6.30;;;6.60;99.90;;;9.75;55.82;97981.06;4907304;29;20067;-51
2022/11/06 00:09:15;;;;;;;8.90;5.27;;;6.60;99.90;;;9.76;55.71;97970.28;4908263;29;20373;-54
2022/11/06 00:11:44;;;;;;;12.30;6.00;;;6.60;99.90;;;9.74;55.44;97963.44;4908866;29;20358;-55
2022/11/06 00:14:13;;;;;;;10.53;5.90;;;6.50;99.90;;;9.68;55.55;97972.84;4908288;29;20055;-55
2022/11/06 00:16:42;;;;;;;8.90;7.13;;;6.50;99.90;;;9.69;55.81;97973.66;4907560;29;20053;-53
2022/11/06 00:19:11;;;;;;;9.97;5.57;;;6.50;99.90;;;9.67;55.85;97979.13;4908407;29;20243;-53
2022/11/06 00:21:39;;;;;;;9.90;5.67;;;6.50;99.90;;;9.69;56.01;97981.66;4908326;29;20055;-54
2022/11/06 00:24:10;;;;;;;8.67;5.37;;;6.50;99.90;;;9.73;55.88;97983.88;4907117;29;20052;-56
2022/11/06 00:26:38;;;;;;;8.97;5.17;;;6.60;99.90;;;9.76;55.66;97982.75;4925012;29;20056;-56
2022/11/06 00:29:06;;;;;;;9.00;5.97;;;6.70;99.90;;;9.80;55.81;97986.78;4927559;29;20056;-54
2022/11/06 00:31:36;;;;;;;9.17;5.57;;;6.70;99.90;;;9.84;55.65;97986.31;4927125;29;20074;-56
2022/11/06 00:34:08;;;;;;;9.43;5.20;;;6.80;99.90;;;9.85;55.73;97995.97;4926579;29;20056;-52
2022/11/06 00:36:37;;;;;;;11.47;6.17;;;6.70;99.90;;;9.86;55.26;97996.81;4927114;29;20227;-54
2022/11/06 00:39:05;;;;;;;10.53;6.27;;;6.60;99.90;;;9.77;55.17;97987.06;4927026;29;20048;-54
2022/11/06 00:41:33;;;;;;;15.03;7.87;;;6.60;99.90;;;9.75;55.01;97984.56;4926791;29;20052;-52
2022/11/06 00:44:03;;;;;;;19.00;8.70;;;6.50;99.90;;;9.73;55.46;97993.66;4926609;29;20052;-54
2022/11/06 00:46:31;;;;;;;12.90;7.90;;;6.50;99.90;;;9.72;55.12;97994.66;4925871;29;20059;-56
2022/11/06 00:48:59;;;;;;;11.90;7.33;;;6.40;99.90;;;9.70;55.03;97993.97;4927625;29;20258;-54
2022/11/06 00:51:40;;;;;;;12.10;6.93;;;6.40;99.90;;;9.69;55.03;97989.63;4926317;29;20073;-55
2022/11/06 00:54:11;;;;;;;11.40;5.97;;;6.40;99.90;;;9.65;55.22;97989.94;4925823;29;20078;-53
2022/11/06 00:56:39;;;;;;;8.87;5.73;;;6.40;99.90;;;9.62;55.47;97987.56;4926727;29;20060;-54
2022/11/06 00:59:11;;;;;;;8.20;5.80;;;6.40;99.90;;;9.63;55.09;97983.94;4926747;29;20362;-53
2022/11/06 01:01:42;;;;;;;9.53;6.20;;;6.40;99.90;;;9.63;55.01;97985.72;4925003;29;20372;-55
2022/11/06 01:04:18;;;;;;;9.90;5.90;;;6.40;99.90;;;9.61;55.22;97982.38;4925014;29;20052;-55
2022/11/06 01:06:51;;;;;;;9.87;6.80;;;6.40;99.90;;;9.61;55.34;97985.88;4926587;29;20048;-51
2022/11/06 01:09:23;;;;;;;8.85;5.60;;;6.40;99.90;;;9.56;55.10;97992.63;4926689;29;20336;-54
2022/11/06 01:11:56;;;;;;;11.07;6.00;;;6.40;99.90;;;9.54;55.18;97997.22;4926676;29;20234;-54
2022/11/06 01:14:42;;;;;;;10.03;6.40;;;6.40;99.90;;;9.55;55.25;97993.59;4926025;29;20054;-51
2022/11/06 01:17:12;;;;;;;7.60;5.03;;;6.40;99.90;;;9.55;55.43;97983.81;4926767;29;20234;-52
2022/11/06 01:19:40;;;;;;;9.97;6.57;;;6.40;99.90;;;9.57;55.01;97976.50;4925320;29;20050;-55
2022/11/06 01:22:08;;;;;;;8.57;6.17;;;6.40;99.90;;;9.53;55.07;97976.97;4925864;29;20052;-54
2022/11/06 01:24:36;;;;;;;10.37;6.27;;;6.30;99.90;;;9.49;55.11;97978.25;4924889;29;20207;-50
2022/11/06 01:27:04;;;;;;;10.73;5.53;;;6.20;99.90;;;9.40;54.97;97972.81;4907914;29;20052;-49
2022/11/06 01:29:52;;;;;;;9.37;6.43;;;6.10;99.90;;;9.38;55.10;97979.25;4907135;29;20060;-51
2022/11/06 01:32:20;;;;;;;11.90;5.97;;;6.00;99.90;;;9.33;54.79;97978.88;4907318;29;20062;-50
2022/11/06 01:34:50;;;;;;;24.00;11.60;;;6.00;99.90;;;9.20;54.85;97980.00;4907096;29;20343;-49
2022/11/06 01:37:18;;;;;;;34.27;15.23;;;5.80;99.90;;;9.13;55.10;97975.41;4906185;29;20058;-48
2022/11/06 01:39:49;;;;;;;17.70;9.57;;;5.80;99.90;;;9.08;54.96;97970.53;4906450;29;20373;-51
2022/11/06 01:42:20;;;;;;;11.00;7.63;;;5.70;99.90;;;9.02;54.96;97974.59;4907270;29;20051;-53
2022/11/06 01:45:28;;;;;;;10.23;6.13;;;5.70;99.90;;;8.96;55.13;97979.66;4906719;29;20052;-50
2022/11/06 01:47:56;;;;;;;10.57;6.00;;;5.70;99.90;;;8.99;55.18;97971.41;4906912;29;20258;-49
2022/11/06 01:50:25;;;;;;;9.17;6.37;;;5.60;99.90;;;8.97;55.14;97968.03;4906997;29;20056;-52
2022/11/06 01:52:54;;;;;;;10.60;6.13;;;5.60;99.90;;;8.99;55.40;97966.09;4906128;29;20385;-50
2022/11/06 01:55:30;;;;;;;8.57;6.50;;;5.70;99.90;;;8.99;55.37;97966.91;4904963;29;20056;-52
2022/11/06 01:58:04;;;;;;;8.30;6.40;;;5.70;99.90;;;8.97;55.31;97966.22;4905866;29;20048;-51
2022/11/06 02:00:32;;;;;;;9.88;6.93;;;5.70;99.90;;;8.86;55.41;97958.44;4904019;29;20055;-53
2022/11/06 02:03:01;;;;;;;12.10;6.47;;;5.60;99.90;;;8.77;55.55;97962.78;4904941;29;20056;-52
2022/11/06 02:05:30;;;;;;;11.33;6.53;;;5.50;99.90;;;8.75;55.93;97961.25;4906835;29;20053;-51
2022/11/06 02:07:59;;;;;;;8.30;5.77;;;5.40;99.90;;;8.71;55.93;97960.69;4905918;29;20055;-51
2022/11/06 02:10:29;;;;;;;10.47;6.07;;;5.50;99.90;;;8.72;56.07;97957.03;4906620;29;20063;-51
2022/11/06 02:13:34;;;;;;;7.90;5.83;;;5.50;99.90;;;8.71;56.01;97963.34;4905857;29;20048;-50
2022/11/06 02:16:29;;;;;;;8.37;5.63;;;5.50;99.90;;;8.73;55.91;97952.59;4906980;29;20063;-50
2022/11/06 02:19:28;;;;;;;;;;;5.50;99.90;;;8.74;55.60;97954.25;4906133;29;20045;-50
2022/11/06 02:22:28;;;;;;;8.37;5.87;;;5.50;99.90;;;8.69;55.61;97948.56;4906943;29;19920;-52
2022/11/06 02:25:08;;;;;;;7.63;5.33;;;5.40;99.90;;;8.73;55.73;97947.28;4909553;29;20062;-50
2022/11/06 02:27:39;;;;;;;10.57;5.60;;;5.40;99.90;;;8.77;55.44;97940.72;4924724;29;20056;-54
2022/11/06 02:30:12;;;;;;;11.23;5.70;;;5.50;99.90;;;8.84;55.85;97937.34;4924586;29;20052;-51
2022/11/06 02:32:56;;;;;;;8.73;5.80;;;5.60;99.90;;;8.88;55.19;97935.25;4924016;29;20245;-49
2022/11/06 02:35:34;;;;;;;10.67;5.93;;;5.70;99.90;;;8.90;55.37;97917.34;4924079;29;20048;-54
2022/11/06 02:38:27;;;;;;;6.67;5.53;;;5.70;99.90;;;8.89;55.21;97920.97;4924711;29;20242;-49
2022/11/06 02:41:01;;;;;;;9.33;5.90;;;5.70;99.90;;;8.92;55.14;97909.22;4924078;29;20048;-51
2022/11/06 02:43:42;;;;;;;8.17;6.07;;;5.70;99.90;;;8.84;54.97;97902.81;4924338;29;20056;-49
2022/11/06 02:46:33;;;;;;;9.10;5.87;;;5.60;99.90;;;8.76;55.22;97897.41;4924366;29;20052;-53
2022/11/06 02:49:13;;;;;;;11.03;6.60;;;5.50;99.90;;;8.72;55.01;97889.84;4926313;29;20056;-53
2022/11/06 02:51:54;;;;;;;11.63;6.23;;;5.40;99.90;;;8.66;55.33;97894.75;4926191;29;20052;-51
2022/11/06 02:54:27;;;;;;;11.17;7.37;;;5.30;99.90;;;8.65;55.12;97884.28;4929057;29;20052;-53
2022/11/06 02:57:04;;;;;;;9.37;6.43;;;5.30;99.90;;;8.63;55.26;97876.47;4928868;29;20052;-52
2022/11/06 03:00:01;;;;;;;10.40;6.40;;;5.30;99.90;;;8.59;55.32;97879.56;4927746;29;20467;-49
2022/11/06 03:02:39;;;;;;;12.07;7.07;;;5.30;99.90;;;8.60;55.48;97879.41;4928869;29;20052;-48
2022/11/06 03:05:42;;;;;;;10.97;7.50;;;5.30;99.90;;;8.55;55.55;97870.19;4928401;29;20250;-50
2022/11/06 03:08:17;;;;;;;14.27;7.13;;;5.20;99.90;;;8.58;55.45;97869.91;4921190;29;20078;-49
2022/11/06 03:11:11;;;;;;;10.67;6.80;;;5.40;99.90;;;8.56;55.87;97874.53;4927564;29;20052;-48
2022/11/06 03:14:34;;;;;;;8.25;5.88;;;5.50;99.90;;;8.61;55.84;97867.81;4921756;29;20060;-50
2022/11/06 03:17:26;;;;;;;10.37;6.60;;;5.60;99.90;;;8.61;55.77;97867.00;4905504;29;20066;-49
2022/11/06 03:20:17;;;;;;;9.17;6.10;;;5.70;99.90;;;8.63;56.08;97865.03;4927527;29;20051;-47
2022/11/06 03:23:17;;;;;;;9.07;6.23;;;5.70;99.90;;;8.63;55.99;97871.16;4927552;29;20055;-52
2022/11/06 03:25:50;;;;;;;11.67;6.53;;;5.60;99.90;;;8.64;55.71;97864.03;4916575;29;20053;-53
2022/11/06 03:28:37;;;;;;;9.77;6.13;;;5.60;99.90;;;8.66;55.80;97864.72;4908604;29;20074;-53
2022/11/06 03:31:13;;;;;;;8.47;6.00;;;5.60;99.90;;;8.67;56.12;97855.78;4908553;29;20056;-51
2022/11/06 03:33:53;;;;;;;8.87;6.70;;;5.60;99.90;;;8.61;56.13;97859.84;4907967;29;20066;-51
2022/11/06 03:36:31;;;;;;;8.63;6.60;;;5.50;99.90;;;8.62;55.68;97860.69;4908661;29;20052;-53
2022/11/06 03:39:08;;;;;;;12.27;6.40;;;5.50;99.90;;;8.64;55.94;97859.56;4908174;29;20060;-51
2022/11/06 03:41:57;;;;;;;11.97;7.40;;;5.50;99.90;;;8.60;55.90;97841.41;4907890;29;20058;-51
2022/11/06 03:44:29;;;;;;;12.47;6.97;;;5.40;99.90;;;8.63;55.77;97843.78;4907676;29;20052;-49
2022/11/06 03:47:21;;;;;;;9.23;6.17;;;5.30;99.90;;;8.59;55.78;97843.25;4908065;29;20220;-48
2022/11/06 03:50:11;;;;;;;11.93;7.33;;;5.40;99.90;;;8.63;55.75;97841.13;4908254;29;20049;-52
2022/11/06 03:52:53;;;;;;;12.30;6.07;;;5.50;99.90;;;8.66;55.84;97852.28;4908803;29;20056;-50
2022/11/06 03:55:33;;;;;;;10.00;6.03;;;5.50;99.90;;;8.67;55.71;97847.81;4907468;29;20354;-49
2022/11/06 03:58:12;;;;;;;11.53;6.73;;;5.50;99.90;;;8.69;55.75;97853.00;4907553;29;20058;-49
2022/11/06 04:00:43;;;;;;;9.17;6.33;;;5.50;99.90;;;8.69;55.79;97845.03;4908147;29;20217;-49
2022/11/06 04:03:27;;;;;;;11.57;6.80;;;5.60;99.90;;;8.67;55.61;97837.22;4907308;29;20054;-52
2022/11/06 04:06:09;;;;;;;10.55;6.13;;;5.60;99.90;;;8.72;55.71;97837.59;4907570;29;20052;-49
2022/11/06 04:14:19;;;;;;;9.53;6.47;;;5.60;99.90;;;8.70;55.75;97828.94;4906958;29;20064;-52
2022/11/06 04:16:53;;;;;;;10.07;5.77;;;5.50;99.90;;;8.70;55.64;97833.41;4907766;29;20271;-50
2022/11/06 04:19:22;;;;;;;;;;;5.50;99.90;;;8.72;55.61;97842.91;4908684;29;20056;-54
2022/11/06 04:22:33;;;;;;;9.30;6.13;;;5.50;99.90;;;8.73;55.62;97841.94;4908669;29;19919;-49
2022/11/06 04:28:42;;;;;;;9.03;6.40;;;5.50;99.90;;;8.70;55.26;97830.75;4927161;29;20062;-52
2022/11/06 04:31:35;;;;;;;8.70;6.30;;;5.40;99.90;;;8.62;55.39;97820.88;4925700;29;20346;-51
2022/11/06 04:34:51;;;;;;;11.83;6.63;;;5.40;99.90;;;8.57;55.32;97813.34;4927129;29;20343;-53
2022/11/06 04:37:32;;;;;;;11.27;6.77;;;5.40;99.90;;;8.60;55.17;97814.88;4926242;29;20052;-53
2022/11/06 04:40:34;;;;;;;10.40;6.87;;;5.30;99.90;;;8.54;55.15;97813.63;4925891;29;20039;-49
2022/11/06 04:43:13;;;;;;;9.67;6.23;;;5.30;99.90;;;8.51;55.04;97813.94;4926899;29;20222;-53
2022/11/06 04:45:48;;;;;;;10.10;6.77;;;5.20;99.90;;;8.46;54.80;97803.75;4925647;29;20238;-48
2022/11/06 04:48:17;;;;;;;9.37;6.10;;;5.20;99.90;;;8.40;54.73;97792.84;4925728;29;20044;-51
2022/11/06 04:50:53;;;;;;;9.93;6.37;;;5.10;99.90;;;8.33;55.32;97781.13;4925768;29;20052;-50
2022/11/06 04:53:23;;;;;;;9.90;6.53;;;5.00;99.90;;;8.25;55.21;97784.50;4925925;29;20070;-50
2022/11/06 04:55:54;;;;;;;9.07;6.27;;;4.90;99.90;;;8.21;55.46;97788.41;4925193;29;20062;-52
2022/11/06 04:58:22;;;;;;;10.33;6.60;;;4.90;99.90;;;8.19;55.72;97790.38;4926905;29;20063;-51
2022/11/06 05:00:51;;;;;;;12.30;7.33;;;4.90;99.90;;;8.16;55.35;97806.56;4924408;29;20048;-51
2022/11/06 05:03:19;;;;;;;9.47;6.93;;;4.80;99.90;;;8.11;55.69;97807.00;4925730;29;20044;-50
2022/11/06 05:05:47;;;;;;;12.73;6.60;;;4.80;99.90;;;8.04;55.85;97806.72;4925991;29;20048;-52
2022/11/06 05:08:19;;;;;;;13.20;7.97;;;4.70;99.90;;;7.98;55.96;97820.53;4925682;29;20058;-48
2022/11/06 05:10:48;;;;;;;12.07;7.23;;;4.60;99.90;;;7.98;55.96;97825.00;4926607;29;20303;-53
2022/11/06 05:13:16;;;;;;;15.27;7.27;;;4.60;99.90;;;7.92;55.92;97820.28;4926189;29;20058;-50
2022/11/06 05:15:44;;;;;;;14.47;7.20;;;4.60;99.90;;;7.88;56.35;97815.25;4924931;29;20064;-51
2022/11/06 05:18:12;;;;;;;9.90;7.10;;;4.60;99.90;;;7.83;56.21;97817.50;4926501;29;20056;-51
2022/11/06 05:20:40;;;;;;;10.50;6.10;;;4.50;99.90;;;7.85;56.02;97812.03;4926309;29;20056;-49
2022/11/06 05:23:08;;;;;;;11.60;7.00;;;4.50;99.90;;;7.86;56.05;97813.72;4926978;29;20052;-51
2022/11/06 05:25:39;;;;;;;11.20;7.30;;;4.60;99.90;;;7.84;56.34;97823.63;4916645;29;20059;-50
2022/11/06 05:28:08;;;;;;;10.70;6.23;;;4.50;99.90;;;7.86;56.29;97825.16;4906326;29;20447;-53
2022/11/06 05:30:36;;;;;;;12.33;6.87;;;4.60;99.90;;;7.84;55.99;97834.22;4907139;29;20063;-51
2022/11/06 05:33:04;;;;;;;11.07;6.07;;;4.50;99.90;;;7.85;56.27;97820.84;4906338;29;20373;-53
2022/11/06 05:35:33;;;;;;;10.80;6.33;;;4.60;99.90;;;7.86;56.32;97813.72;4906657;29;20052;-51
2022/11/06 05:38:02;;;;;;;11.10;6.57;;;4.60;99.90;;;7.88;55.99;97812.59;4907313;29;20048;-53
2022/11/06 05:40:30;;;;;;;12.43;5.67;;;4.60;99.90;;;7.88;55.99;97811.75;4907057;29;20044;-51
2022/11/06 05:42:58;;;;;;;10.27;5.87;;;4.60;99.90;;;7.87;55.82;97805.63;4907159;29;20059;-49
2022/11/06 05:45:26;;;;;;;8.60;6.00;;;4.60;99.90;;;7.88;56.00;97794.03;4905655;29;20058;-53
2022/11/06 05:47:55;;;;;;;7.00;5.13;;;4.60;99.90;;;7.95;55.88;97798.75;4907060;29;20044;-51
2022/11/06 05:50:24;;;;;;;8.43;5.57;;;4.60;99.90;;;7.96;55.80;97806.59;4907079;29;20059;-50
2022/11/06 05:52:52;;;;;;;7.93;5.23;;;4.70;99.90;;;7.98;55.47;97811.75;4907280;29;20351;-49
2022/11/06 05:55:20;;;;;;;11.10;6.90;;;4.70;99.90;;;7.97;55.15;97829.47;4906556;29;20096;-49
2022/11/06 05:57:48;;;;;;;9.27;6.27;;;4.60;99.90;;;7.94;55.45;97826.28;4906523;29;20060;-49
2022/11/06 06:00:17;;;;;;;9.77;6.60;;;4.60;99.90;;;7.94;55.51;97824.44;4906008;29;20054;-54
2022/11/06 06:02:45;;;;;;;9.53;7.03;;;4.60;99.90;;;7.92;55.25;97823.75;4906853;29;20074;-49
2022/11/06 06:05:13;;;;;;;9.70;6.10;;;4.60;99.90;;;7.94;55.44;97826.28;4906506;29;20053;-50
2022/11/06 06:07:41;;;;;;;10.17;6.10;;;4.60;99.90;;;7.93;55.26;97817.50;4906951;29;20054;-53
2022/11/06 06:10:10;;;;;;;7.57;5.70;;;4.60;99.90;;;7.91;55.24;97826.53;4906932;29;20343;-52
2022/11/06 06:12:38;;;;;;;14.03;6.10;;;4.60;99.90;;;7.83;55.29;97828.09;4906557;29;20350;-48
2022/11/06 06:15:07;;;;;;;18.87;8.73;;;4.50;99.90;;;7.72;55.54;97817.63;4906580;29;20048;-54
2022/11/06 06:17:35;;;;;;;9.77;5.77;;;4.40;99.90;;;7.68;55.68;97809.09;4906748;29;20049;-49
2022/11/06 06:20:04;;;;;;;8.63;5.10;;;4.40;99.90;;;7.69;55.73;97807.28;4906898;29;20055;-49
2022/11/06 06:22:32;;;;;;;6.30;4.07;;;4.30;99.90;;;7.67;55.86;97796.81;4921383;29;20053;-47
2022/11/06 06:25:01;;;;;;;7.90;4.37;;;4.30;99.90;;;7.64;55.84;97796.28;4925701;29;20054;-48
2022/11/06 06:27:30;;;;;;;8.67;4.50;;;4.30;99.90;;;7.58;55.74;97787.06;4928396;29;20047;-50
2022/11/06 06:29:58;;;;;;;9.27;5.73;;;4.20;99.90;;;7.58;55.82;97787.06;4928320;29;20066;-51
2022/11/06 06:32:26;;;;;;;9.53;5.93;;;4.20;99.90;;;7.61;56.05;97778.00;4930013;29;20056;-52
2022/11/06 06:34:54;;;;;;;10.60;5.73;;;4.30;99.90;;;7.62;55.79;97782.34;4928771;29;20052;-49
2022/11/06 06:37:22;;;;;;;9.47;5.47;;;4.30;99.90;;;7.60;55.62;97779.81;4929367;29;20058;-52
2022/11/06 06:39:50;;;;;;;9.30;5.10;;;4.30;99.90;;;7.61;55.79;97780.66;4929049;29;20066;-50
2022/11/06 06:42:18;;;;;;;10.30;5.20;;;4.30;99.90;;;7.61;56.06;97783.31;4929103;29;20052;-54
2022/11/06 06:44:46;;;;;;;7.00;4.87;;;4.30;99.90;;;7.58;56.21;97775.63;4927714;29;20369;-50
2022/11/06 06:47:17;;;;;;;10.47;5.20;;;4.30;99.90;;;7.59;56.02;97766.72;4928667;29;20219;-49
2022/11/06 06:49:47;;;;;;;7.67;4.57;;;4.30;99.90;;;7.59;55.76;97770.19;4928896;29;20048;-52
2022/11/06 06:52:15;;;;;;;7.20;4.57;;;4.30;99.90;;;7.60;55.92;97773.66;4929404;29;20066;-50
2022/11/06 06:54:43;;;;;;;6.77;4.63;;;4.30;99.90;;;7.63;55.55;97768.09;4928286;29;20056;-52
2022/11/06 06:57:11;;;;;;;8.47;5.93;;;4.30;99.90;;;7.63;55.66;97768.09;4928990;29;20056;-52
2022/11/06 06:59:39;;;;;;;5.80;4.47;;;4.30;99.90;;;7.67;55.65;97761.53;4928856;29;20380;-51
2022/11/06 07:02:08;;;;;;;6.90;4.60;;;4.30;99.90;;;7.69;55.69;97755.13;4927526;29;20223;-51
2022/11/06 07:04:36;;;;;;;6.50;3.40;;;4.50;99.90;;;7.75;55.56;97744.94;4928270;29;20054;-51
2022/11/06 07:07:04;;;;;;;7.23;4.47;;;4.60;99.90;;;7.77;55.64;97746.47;4928917;29;20055;-52
2022/11/06 07:09:32;;;;;;;6.43;4.27;;;4.70;99.90;;;7.70;55.52;97734.78;4928475;29;20140;-53
2022/11/06 07:12:01;;;;;;;6.23;3.90;;;4.70;99.90;;;7.70;55.92;97740.06;4928903;29;20062;-50
2022/11/06 07:14:29;;;;;;;8.97;5.00;;;4.80;99.90;;;7.69;56.13;97736.56;4928191;29;20058;-52
2022/11/06 07:16:57;;;;;;;6.87;4.30;;;4.80;99.90;;;7.72;55.93;97732.00;4928502;29;20351;-52
2022/11/06 07:19:25;;;;;;;7.30;4.77;;;4.90;99.90;;;7.72;56.06;97719.56;4928478;29;20070;-50
2022/11/06 07:21:53;;;;;;;8.03;4.47;;;4.90;99.90;;;7.76;56.12;97723.59;4925179;29;20050;-49
2022/11/06 07:24:21;;;;;;;7.03;4.93;;;5.00;99.90;;;7.74;56.42;97722.91;4927285;29;20048;-53
2022/11/06 07:26:49;;;;;;;7.50;4.50;;;4.90;99.90;;;7.75;56.44;97711.31;4909575;29;20052;-50
2022/11/06 07:29:17;;;;;;;7.50;5.17;;;5.00;99.90;;;7.78;56.28;97702.25;4908220;29;20071;-52
2022/11/06 07:31:46;;;;;;;7.57;5.50;;;5.00;99.90;;;7.79;56.09;97706.56;4908194;29;20060;-50
2022/11/06 07:34:14;;;;;;;7.53;5.30;;;5.10;99.90;;;7.81;56.45;97696.66;4907831;29;20262;-50
2022/11/06 07:36:42;;;;;;;7.73;4.93;;;5.10;99.90;;;7.88;56.16;97695.94;4906913;29;20063;-54
2022/11/06 07:39:10;;;;;;;8.90;6.00;;;5.10;99.90;;;7.95;56.05;97688.28;4908476;29;20062;-52
2022/11/06 07:41:38;;;;;;;9.97;5.80;;;5.10;99.90;;;8.03;55.83;97692.88;4908074;29;20045;-50
2022/11/06 07:44:06;;;;;;;10.17;6.57;;;5.10;99.90;;;7.97;55.97;97691.63;4907823;29;20063;-50
2022/11/06 07:46:34;;;;;;;10.57;6.50;;;5.10;99.90;;;7.99;55.86;97689.66;4906944;29;20058;-50
2022/11/06 07:49:03;;;;;;;9.17;6.17;;;5.10;99.90;;;8.06;56.10;97676.66;4907013;29;20053;-53
2022/11/06 07:51:31;;;;;;;11.20;6.93;;;5.10;99.90;;;8.08;56.10;97669.38;4908241;29;20267;-49
2022/11/06 07:53:59;;;;;;;9.30;6.70;;;5.10;99.90;;;8.12;56.19;97665.47;4907425;29;20052;-48
2022/11/06 07:56:27;;;;;;;9.53;6.53;;;5.20;99.90;;;8.14;56.10;97662.66;4908453;29;20092;-52
2022/11/06 07:58:56;;;;;;;8.07;6.03;;;5.20;99.90;;;8.14;56.36;97658.19;4907894;29;20170;-49
2022/11/06 08:01:24;;;;;;;11.63;5.87;;;5.30;99.90;;;8.17;56.17;97663.22;4906890;29;20061;-49
2022/11/06 08:03:53;;;;;;;7.70;5.80;;;5.30;99.90;;;8.25;56.28;97665.13;4907635;29;20060;-54
2022/11/06 08:06:21;;;;;;;8.93;6.90;;;5.30;99.90;;;8.30;56.11;97654.94;4908175;29;20049;-50
2022/11/06 08:08:49;;;;;;;10.17;6.33;;;5.30;99.90;;;8.34;56.11;97653.66;4907637;29;20053;-52
2022/11/06 08:11:22;;;;;;;10.63;6.40;;;5.40;99.90;;;8.42;56.01;97659.09;4907951;29;20055;-50
2022/11/06 08:13:51;;;;;;;14.27;6.93;;;5.40;99.90;;;8.39;56.13;97651.38;4907322;29;20060;-51
2022/11/06 08:16:19;;;;;;;9.67;6.97;;;5.40;99.90;;;8.40;55.95;97658.38;4907834;29;20055;-51
2022/11/06 08:18:47;;;;;;;8.37;6.40;;;5.40;99.90;;;8.42;56.28;97656.44;4907922;29;20055;-49
2022/11/06 08:21:15;;;;;;;9.93;6.73;;;5.40;99.90;;;8.44;56.17;97667.75;4907419;29;20058;-51
2022/11/06 08:23:43;;;;;;;8.23;6.40;;;5.40;99.90;;;8.51;56.03;97672.44;4907349;29;20053;-53
2022/11/06 08:26:11;;;;;;;11.80;7.00;;;5.40;99.90;;;8.55;56.17;97676.47;4920314;29;20044;-50
2022/11/06 08:28:40;;;;;;;12.70;6.80;;;5.50;99.90;;;8.55;56.18;97676.47;4926986;29;20054;-53
2022/11/06 08:31:09;;;;;;;8.97;6.47;;;5.50;99.90;;;8.57;56.25;97672.72;4926069;29;20238;-53
2022/11/06 08:33:38;;;;;;;8.63;6.43;;;5.50;99.90;;;8.64;56.34;97668.47;4926019;29;20044;-52
2022/11/06 08:36:08;;;;;;;9.50;5.73;;;5.50;99.90;;;8.68;56.56;97666.34;4925675;29;20060;-51
2022/11/06 08:38:36;;;;;;;9.33;6.40;;;5.60;99.90;;;8.72;56.57;97664.25;4926006;29;20051;-50
2022/11/06 08:41:12;;;;;;;10.07;5.50;;;5.70;99.90;;;8.78;56.69;97661.84;4925855;29;20059;-52
2022/11/06 08:43:40;;;;;;;12.27;6.80;;;5.80;99.90;;;8.83;56.80;97651.59;4925511;29;20050;-51
2022/11/06 08:46:09;;;;;;;9.77;6.43;;;5.90;99.90;;;8.88;56.78;97648.50;4925932;29;20054;-48
2022/11/06 08:48:38;;;;;;;8.77;6.40;;;6.00;99.90;;;8.98;56.85;97638.63;4924851;29;20048;-52
2022/11/06 08:51:06;;;;;;;10.37;6.43;;;6.10;99.90;;;9.08;56.82;97638.56;4926063;29;20052;-53
2022/11/06 08:53:34;;;;;;;9.60;5.83;;;6.20;99.90;;;9.17;56.99;97644.75;4925299;29;20232;-53
2022/11/06 08:56:04;;;;;;;8.67;5.50;;;6.30;99.90;;;9.23;56.95;97644.19;4925674;29;20056;-49
2022/11/06 08:58:32;;;;;;;9.37;5.97;;;6.30;99.90;;;9.29;57.03;97646.22;4926112;29;20066;-50
2022/11/06 09:01:01;;;;;;;8.43;6.60;;;6.50;99.90;;;9.37;56.91;97648.94;4926007;29;20051;-52
2022/11/06 09:03:29;;;;;;;7.43;5.13;;;6.50;99.90;;;9.42;57.09;97641.34;4924570;29;20048;-53
2022/11/06 09:05:57;;;;;;;11.20;6.13;;;6.70;99.90;;;9.46;57.16;97642.72;4926445;29;20095;-53
2022/11/06 09:08:25;;;;;;;8.63;6.57;;;6.80;99.90;;;9.53;57.14;97663.34;4924658;29;20052;-52
2022/11/06 09:10:54;;;;;;;7.70;5.17;;;6.80;99.90;;;9.61;56.81;97688.16;4925181;29;20048;-53
2022/11/06 09:13:26;;;;;;;9.50;6.57;;;6.90;99.90;;;9.70;56.61;97699.69;4926530;29;20059;-51
2022/11/06 09:15:54;;;;;;;7.87;6.23;;;6.90;99.90;;;9.79;56.65;97712.06;4924761;29;20052;-50
2022/11/06 09:18:22;;;;;;;9.03;5.80;;;7.00;99.90;;;9.88;56.98;97704.97;4926306;29;20059;-50
2022/11/06 09:20:55;;;;;;;7.37;4.90;;;7.00;99.90;;;9.94;56.30;97691.06;4926210;29;20392;-48
2022/11/06 09:23:23;;;;;;;8.43;5.87;;;7.00;99.90;;;10.02;56.38;97690.28;4925435;29;20087;-49
2022/11/06 09:25:52;;;;;;;8.80;6.47;;;7.00;99.90;;;9.97;56.29;97677.47;4914870;29;20295;-49
2022/11/06 09:28:20;;;;;;;9.03;7.90;;;7.00;99.90;;;10.03;55.95;97671.50;4906341;29;20045;-49
2022/11/06 09:30:48;;;;;;;7.50;4.97;;;7.00;99.90;;;10.09;55.90;97674.53;4907141;29;20066;-50
2022/11/06 09:33:16;;;;;;;6.97;4.83;;;7.00;99.90;;;10.13;55.93;97670.56;4907149;29;20059;-50
2022/11/06 09:35:44;;;;;;;8.77;5.17;;;7.10;99.90;;;9.98;55.94;97670.31;4906802;29;20059;-52
2022/11/06 09:38:14;;;;;;;7.83;4.80;;;7.10;99.90;;;10.09;55.67;97656.75;4907440;29;20057;-53
2022/11/06 09:41:35;;;;;;;7.03;4.87;;;7.10;99.90;;;10.15;56.24;97642.81;4906289;29;20055;-53
2022/11/06 09:44:10;;;;;;;8.23;5.67;;;7.20;99.90;;;10.25;55.88;97635.56;4906484;29;20095;-50
2022/11/06 09:46:46;;;;;;;7.23;4.50;;;7.20;99.90;;;10.31;55.59;97642.06;4907144;29;20048;-48
2022/11/06 09:49:22;;;;;;;8.70;5.13;;;7.40;99.90;;;10.36;56.14;97630.97;4906914;29;20058;-51
2022/11/06 09:52:10;;;;;;;6.10;4.23;;;7.50;99.90;;;10.44;55.69;97623.00;4906224;29;20052;-53
2022/11/06 09:54:45;;;;;;;6.37;4.83;;;7.60;99.90;;;10.57;55.67;97625.22;4906240;29;20049;-50
2022/11/06 09:58:30;;;;;;;11.07;5.57;;;7.70;99.90;;;10.63;55.94;97613.94;4905746;29;20056;-49
2022/11/06 10:01:14;;;;;;;8.57;5.57;;;7.80;99.90;;;10.77;55.67;97610.63;4895452;29;20384;-52
2022/11/06 10:04:50;;;;;;;6.10;4.97;;;7.80;99.90;;;10.79;55.60;97613.13;4905344;29;20044;-49
2022/11/06 10:07:41;;;;;;;6.97;4.43;;;7.90;99.90;;;10.88;55.54;97614.00;4906613;29;20051;-53
2022/11/06 10:10:26;;;;;;;6.87;3.97;;;8.00;99.90;;;10.93;55.14;97614.31;4905852;29;20235;-51
2022/11/06 10:13:37;;;;;;;5.50;3.30;;;8.10;99.80;;;10.92;55.09;97610.81;4905704;29;20066;-52
2022/11/06 10:17:00;;;;;;;6.13;3.87;;;8.20;99.10;;;10.98;55.57;97594.19;4904936;29;20067;-51
2022/11/06 10:20:04;;;;;;;4.63;3.17;;;8.20;98.00;;;11.06;54.97;97579.22;4905000;29;20063;-52
2022/11/06 10:22:38;;;;;;;4.77;3.77;;;8.30;97.60;;;11.10;54.85;97568.03;4888556;29;20044;-53
2022/11/06 10:25:26;;;;;;;4.77;3.37;;;8.30;97.20;;;11.12;55.26;97570.56;4909888;29;20062;-48
2022/11/06 10:28:56;;;;;;;5.50;4.00;;;8.30;98.30;;;11.23;54.38;97562.22;4918111;29;20056;-51
2022/11/06 10:31:49;;;;;;;7.17;4.07;;;8.40;96.90;;;11.24;54.80;97553.22;4849003;29;20062;-53
2022/11/06 10:34:35;;;;;;;19.77;6.47;;;8.50;97.70;;;11.34;54.60;97545.91;4887381;29;20072;-50
2022/11/06 10:37:31;;;;;;;5.90;4.53;;;8.60;97.60;;;11.41;54.80;97538.06;4887075;29;20343;-50
2022/11/06 10:40:02;;;;;;;7.50;4.20;;;8.70;97.10;;;11.51;54.74;97533.34;4886724;29;20064;-49
2022/11/06 10:42:39;;;;;;;8.17;4.27;;;8.80;97.60;;;11.56;54.42;97527.53;4886917;29;20406;-53
2022/11/06 10:45:14;;;;;;;7.37;4.90;;;8.80;97.60;;;11.65;54.45;97515.84;4887276;29;20060;-49
2022/11/06 10:47:51;;;;;;;7.07;5.00;;;8.90;97.60;;;11.72;54.52;97506.13;4887810;29;20051;-50
2022/11/06 10:50:20;;;;;;;5.57;3.90;;;9.00;97.30;;;11.76;54.17;97496.78;4886261;29;20059;-51
2022/11/06 10:53:41;;;;;;;6.47;4.70;;;9.00;97.50;;;11.79;54.19;97501.78;4887818;29;20057;-51
2022/11/06 10:56:40;;;;;;;6.10;4.50;;;9.10;96.60;;;11.85;54.58;97486.13;4885621;29;20065;-52
2022/11/06 10:59:08;;;;;;;7.77;4.83;;;9.10;96.90;;;11.89;54.56;97474.09;4887727;29;20049;-49
2022/11/06 11:01:37;;;;;;;8.17;5.03;;;9.10;97.70;;;11.95;54.55;97462.75;4886830;29;20338;-52
2022/11/06 11:04:05;;;;;;;7.33;4.97;;;9.10;98.10;;;12.02;54.65;97450.38;4887308;29;20041;-50
2022/11/06 11:06:33;;;;;;;9.07;4.80;;;9.20;98.50;;;12.09;54.75;97445.16;4887503;29;20049;-52
2022/11/06 11:09:22;;;;;;;7.13;5.20;;;9.30;98.80;;;12.13;54.32;97436.63;4887595;29;20055;-52
2022/11/06 11:11:50;;;;;;;7.83;5.57;;;9.30;98.90;;;12.18;54.75;97442.28;4887079;29;20049;-49
2022/11/06 11:14:30;;;;;;;7.50;5.27;;;9.40;99.60;;;12.25;54.96;97444.22;4889490;29;20057;-52
2022/11/06 11:17:00;;;;;;;7.90;6.00;;;9.40;99.80;;;12.31;55.03;97428.34;4890053;29;20059;-52